createdAt,value
2023-02-17T00:01:34.700Z,11.90
2023-02-17T00:06:38.644Z,11.90
2023-02-17T00:11:41.012Z,11.90
2023-02-17T00:16:44.444Z,11.90
2023-02-17T00:21:48.289Z,11.90
2023-02-17T00:26:50.885Z,11.90
2023-02-17T00:31:54.197Z,11.90
2023-02-17T00:36:58.113Z,11.90
2023-02-17T00:42:00.465Z,12.00
2023-02-17T00:47:02.799Z,11.90
2023-02-17T00:52:06.724Z,12.00
2023-02-17T00:57:09.080Z,12.00
2023-02-17T01:02:11.507Z,12.00
2023-02-17T01:07:15.191Z,12.00
2023-02-17T01:12:17.489Z,12.00
2023-02-17T01:17:19.811Z,12.00
2023-02-17T01:22:23.641Z,12.10
2023-02-17T01:27:25.929Z,12.10
2023-02-17T01:32:28.355Z,12.10
2023-02-17T01:37:33.233Z,12.10
2023-02-17T01:42:35.707Z,12.10
2023-02-17T01:47:38.086Z,12.10
2023-02-17T01:52:43.553Z,12.10
2023-02-17T01:57:48.476Z,12.10
2023-02-17T02:02:51.742Z,12.10
2023-02-17T02:07:57.094Z,12.10
2023-02-17T02:12:59.737Z,12.20
2023-02-17T02:18:25.332Z,12.20
2023-02-17T02:23:58.885Z,12.20
2023-02-17T02:29:44.021Z,12.20
2023-02-17T02:34:53.742Z,12.20
2023-02-17T02:39:57.443Z,12.30
2023-02-17T02:44:59.763Z,12.30
2023-02-17T02:50:03.662Z,12.30
2023-02-17T02:55:12.322Z,12.30
2023-02-17T03:00:23.960Z,12.30
2023-02-17T03:05:37.315Z,12.30
2023-02-17T03:10:46.023Z,12.30
2023-02-17T03:15:49.440Z,12.30
2023-02-17T03:20:57.248Z,12.30
2023-02-17T03:25:59.932Z,12.40
2023-02-17T03:31:02.344Z,12.40
2023-02-17T03:36:07.519Z,12.40
2023-02-17T03:41:10.235Z,12.40
2023-02-17T03:46:13.157Z,12.40
2023-02-17T03:51:19.331Z,12.40
2023-02-17T03:56:21.673Z,12.40
2023-02-17T04:01:24.564Z,12.40
2023-02-17T04:06:28.416Z,12.40
2023-02-17T04:11:30.762Z,12.40
2023-02-17T04:16:33.184Z,12.50
2023-02-17T04:21:37.037Z,12.40
2023-02-17T04:26:39.386Z,12.40
2023-02-17T04:31:41.778Z,12.50
2023-02-17T04:36:45.579Z,12.50
2023-02-17T04:41:48.000Z,12.50
2023-02-17T04:46:50.339Z,12.50
2023-02-17T04:51:54.134Z,12.50
2023-02-17T04:56:56.513Z,12.50
2023-02-17T05:01:58.871Z,12.50
2023-02-17T05:07:02.690Z,12.50
2023-02-17T05:12:05.190Z,12.40
2023-02-17T05:17:07.932Z,12.40
2023-02-17T05:22:14.281Z,12.40
2023-02-17T05:27:17.172Z,12.40
2023-02-17T05:32:20.106Z,12.40
2023-02-17T05:37:24.662Z,12.40
2023-02-17T05:42:29.227Z,12.40
2023-02-17T05:47:33.118Z,12.40
2023-02-17T05:52:37.352Z,12.30
2023-02-17T05:57:40.108Z,12.30
2023-02-17T06:02:43.134Z,12.30
2023-02-17T06:07:47.392Z,12.30
2023-02-17T06:12:50.435Z,12.20
2023-02-17T06:17:53.145Z,12.20
2023-02-17T06:23:03.091Z,12.10
2023-02-17T06:28:11.397Z,12.10
2023-02-17T06:33:14.213Z,12.10
2023-02-17T06:38:19.046Z,12.10
2023-02-17T06:43:24.144Z,12.00
2023-02-17T06:48:29.690Z,12.10
2023-02-17T06:53:36.973Z,12.00
2023-02-17T06:58:39.400Z,12.10
2023-02-17T07:03:42.423Z,12.10
2023-02-17T07:08:46.987Z,12.00
2023-02-17T07:13:49.833Z,12.00
2023-02-17T07:18:53.024Z,12.00
2023-02-17T07:23:57.603Z,12.00
2023-02-17T07:29:00.295Z,12.00
2023-02-17T07:34:12.053Z,12.00
2023-02-17T07:39:16.394Z,12.00
2023-02-17T07:44:19.409Z,12.00
2023-02-17T07:49:25.236Z,12.00
2023-02-17T08:00:43.468Z,12.00
2023-02-17T08:05:48.149Z,12.00
2023-02-17T08:10:51.333Z,12.00
2023-02-17T08:15:55.137Z,12.10
2023-02-17T08:20:57.452Z,12.10
2023-02-17T08:26:00.270Z,12.10
2023-02-17T08:31:15.674Z,12.20
2023-02-17T08:36:19.643Z,12.20
2023-02-17T08:41:24.953Z,12.30
2023-02-17T08:47:19.733Z,12.30
2023-02-17T08:53:15.430Z,12.30
2023-02-17T08:58:22.562Z,12.40
2023-02-17T09:04:16.116Z,12.50
2023-02-17T09:09:39.748Z,12.50
2023-02-17T09:15:11.252Z,12.60
2023-02-17T09:20:25.034Z,12.70
2023-02-17T09:32:16.080Z,12.80
2023-02-17T09:37:41.775Z,12.90
2023-02-17T09:54:28.930Z,13.10
2023-02-17T10:05:23.848Z,13.30
2023-02-17T10:10:31.762Z,13.30
2023-02-17T10:15:40.249Z,13.30
2023-02-17T10:20:50.272Z,13.30
2023-02-17T10:26:06.374Z,13.30
2023-02-17T10:31:13.815Z,13.30
2023-02-17T10:36:25.581Z,13.40
2023-02-17T10:41:34.617Z,13.40
2023-02-17T10:46:40.683Z,13.40
2023-02-17T10:51:44.492Z,13.40
2023-02-17T10:56:51.451Z,13.40
2023-02-17T11:01:58.596Z,13.40
2023-02-17T11:07:11.279Z,13.40
2023-02-17T11:12:17.809Z,13.40
2023-02-17T11:17:27.351Z,13.50
2023-02-17T11:22:36.839Z,13.50
2023-02-17T11:27:39.125Z,13.50
2023-02-17T11:32:41.502Z,13.50
2023-02-17T11:37:45.425Z,13.50
2023-02-17T11:42:56.410Z,13.50
2023-02-17T11:48:19.552Z,13.60
2023-02-17T11:53:36.332Z,13.60
2023-02-17T11:58:59.541Z,13.60
2023-02-17T12:04:28.155Z,13.70
2023-02-17T12:09:45.459Z,13.70
2023-02-17T12:15:02.127Z,13.70
2023-02-17T12:20:16.464Z,13.80
2023-02-17T12:25:29.171Z,13.80
2023-02-17T12:30:46.348Z,13.90
2023-02-17T12:35:52.309Z,13.90
2023-02-17T12:41:00.676Z,14.00
2023-02-17T12:46:08.342Z,14.00
2023-02-17T12:51:17.813Z,14.00
2023-02-17T12:56:48.502Z,14.10
2023-02-17T13:01:56.780Z,14.20
2023-02-17T13:07:22.877Z,14.30
2023-02-17T13:12:39.997Z,14.40
2023-02-17T13:17:52.327Z,14.60
2023-02-17T13:23:06.209Z,14.70
2023-02-17T13:28:35.626Z,14.80
2023-02-17T13:33:44.338Z,14.80
2023-02-17T13:38:55.993Z,14.90
2023-02-17T13:43:59.789Z,14.90
2023-02-17T13:49:04.598Z,14.90
2023-02-17T13:54:08.646Z,14.90
2023-02-17T13:59:16.838Z,14.90
2023-02-17T14:04:22.206Z,15.00
2023-02-17T14:09:27.503Z,15.00
2023-02-17T14:14:33.905Z,15.00
2023-02-17T14:19:43.809Z,14.90
2023-02-17T14:24:46.208Z,14.90
2023-02-17T14:29:50.385Z,14.80
2023-02-17T14:34:52.765Z,14.80
2023-02-17T14:39:55.054Z,14.70
2023-02-17T14:44:58.865Z,14.60
2023-02-17T14:50:01.249Z,14.50
2023-02-17T14:55:06.554Z,14.30
2023-02-17T15:00:14.955Z,14.20
2023-02-17T15:05:17.589Z,14.00
2023-02-17T15:10:25.032Z,13.90
2023-02-17T15:15:28.838Z,13.90
2023-02-17T15:20:31.180Z,13.70
2023-02-17T15:25:34.955Z,13.70
2023-02-17T15:30:39.047Z,13.60
2023-02-17T15:35:41.564Z,13.60
2023-02-17T15:40:43.865Z,13.50
2023-02-17T15:45:47.631Z,13.40
2023-02-17T15:50:50.199Z,13.20
2023-02-17T15:55:53.445Z,13.10
2023-02-17T16:01:01.599Z,13.00
2023-02-17T16:06:04.129Z,12.90
2023-02-17T16:11:08.827Z,12.80
2023-02-17T16:16:17.580Z,12.60
2023-02-17T16:21:19.935Z,12.50
2023-02-17T16:26:27.715Z,12.30
2023-02-17T16:31:32.563Z,12.20
2023-02-17T16:36:36.184Z,12.10
2023-02-17T16:41:40.002Z,12.00
2023-02-17T16:46:49.220Z,11.80
2023-02-17T16:51:51.958Z,11.70
2023-02-17T16:56:55.083Z,11.60
2023-02-17T17:01:58.942Z,11.50
2023-02-17T17:07:01.278Z,11.40
2023-02-17T17:12:06.711Z,11.30
2023-02-17T17:17:11.951Z,11.20
2023-02-17T17:22:14.361Z,11.10
2023-02-17T17:27:16.720Z,11.00
2023-02-17T17:32:20.501Z,11.00
2023-02-17T17:37:22.878Z,10.90
2023-02-17T17:42:25.181Z,10.80
2023-02-17T17:47:30.398Z,10.80
2023-02-17T17:52:33.321Z,10.70
2023-02-17T17:57:35.600Z,10.70
2023-02-17T18:02:39.413Z,10.60
2023-02-17T18:07:45.087Z,10.60
2023-02-17T18:12:48.727Z,10.50
2023-02-17T18:17:53.299Z,10.50
2023-02-17T18:22:56.080Z,10.50
2023-02-17T18:27:58.439Z,10.40
2023-02-17T18:33:04.105Z,10.40
2023-02-17T18:38:16.041Z,10.40
2023-02-17T18:43:18.393Z,10.30
2023-02-17T18:48:22.379Z,10.30
2023-02-17T18:53:24.677Z,10.30
2023-02-17T18:58:27.057Z,10.20
2023-02-17T19:03:31.064Z,10.20
2023-02-17T19:08:33.891Z,10.20
2023-02-17T19:13:36.949Z,10.10
2023-02-17T19:18:41.863Z,10.10
2023-02-17T19:23:44.778Z,10.00
2023-02-17T19:28:47.142Z,10.00
2023-02-17T19:33:51.001Z,10.00
2023-02-17T19:38:56.860Z,9.90
2023-02-17T19:43:59.204Z,9.90
2023-02-17T19:49:03.345Z,9.90
2023-02-17T19:54:05.701Z,9.90
2023-02-17T19:59:08.035Z,9.90
2023-02-17T20:04:11.881Z,9.90
2023-02-17T20:09:18.381Z,9.90
2023-02-17T20:14:21.126Z,9.80
2023-02-17T20:19:25.046Z,9.80
2023-02-17T20:24:27.532Z,9.80
2023-02-17T20:29:30.005Z,9.80
2023-02-17T20:34:36.152Z,9.80
2023-02-17T20:39:39.181Z,9.80
2023-02-17T20:44:42.031Z,9.80
2023-02-17T20:49:46.662Z,9.70
2023-02-17T20:54:49.090Z,9.70
2023-02-17T20:59:51.761Z,9.70
2023-02-17T21:04:55.609Z,9.70
2023-02-17T21:09:58.027Z,9.70
2023-02-17T21:15:00.670Z,9.70
2023-02-17T21:20:05.163Z,9.70
2023-02-17T21:25:08.166Z,9.70
2023-02-17T21:30:11.521Z,9.70
2023-02-17T21:35:15.362Z,9.70
2023-02-17T21:40:20.692Z,9.70
2023-02-17T21:45:23.476Z,9.70
2023-02-17T21:50:27.378Z,9.70
2023-02-17T21:55:29.717Z,9.70
2023-02-17T22:00:32.526Z,9.60
2023-02-17T22:05:36.519Z,9.60
2023-02-17T22:10:39.357Z,9.50
2023-02-17T22:15:41.824Z,9.50
2023-02-17T22:20:45.750Z,9.40
2023-02-17T22:25:48.153Z,9.30
2023-02-17T22:30:53.801Z,9.20
2023-02-17T22:36:04.327Z,9.10
2023-02-17T22:41:07.972Z,9.10
2023-02-17T22:46:11.346Z,9.00
2023-02-17T22:51:17.630Z,9.00
2023-02-17T22:56:20.464Z,9.00
2023-02-17T23:01:24.482Z,8.90
2023-02-17T23:06:31.048Z,8.90
2023-02-17T23:11:35.292Z,8.90
2023-02-17T23:16:38.434Z,8.90
2023-02-17T23:21:46.256Z,8.90
2023-02-17T23:26:49.638Z,9.00
2023-02-17T23:31:52.202Z,9.00
2023-02-17T23:36:56.011Z,8.90
2023-02-17T23:41:58.403Z,9.00
2023-02-17T23:47:00.731Z,9.00
2023-02-17T23:52:04.845Z,9.00
2023-02-17T23:57:07.305Z,9.10
